IWG007 LEIB-LEAS
Flight info
| Callsign | IWG007 |
|---|---|
| Flight time | 1h 22m |
| Altitude | 33000 |
| Route | EPAMA N856 UMURE N863 REBUL M601 BLV M190 AMAKA |
| Aircraft | A20N/M-SDE2E3FGHIJ1RWXY/LB1 |
Departure
| Time | 2026-05-05 09:49 |
|---|---|
| Airport | Ibiza Airport (LEIB) |
Arrival
| Time | 2026-05-05 11:11 |
|---|---|
| Airport | Asturias Airport (LEAS) |
| Time | Latitude | Longitude | Altitude | Speed | Heading |
|---|---|---|---|---|---|
| 2026-05-05 09:41 | 38.87576 | 1.37112 | 44 ft | 2 kts | 22° |
| 2026-05-05 09:41 | 38.87568 | 1.37107 | 44 ft | 0 kts | 68° |
| 2026-05-05 09:44 | 38.87571 | 1.37114 | 43 ft | 2 kts | 68° |
| 2026-05-05 09:45 | 38.87579 | 1.37140 | 44 ft | 4 kts | 67° |
| 2026-05-05 09:45 | 38.87595 | 1.37185 | 48 ft | 7 kts | 63° |
| 2026-05-05 09:45 | 38.87622 | 1.37244 | 46 ft | 9 kts | 59° |
| 2026-05-05 09:45 | 38.87656 | 1.37318 | 49 ft | 11 kts | 62° |
| 2026-05-05 09:46 | 38.87697 | 1.37417 | 48 ft | 14 kts | 63° |
| 2026-05-05 09:46 | 38.87646 | 1.37512 | 47 ft | 17 kts | 152° |
| 2026-05-05 09:46 | 38.87604 | 1.37627 | 42 ft | 17 kts | 59° |
| 2026-05-05 09:46 | 38.87669 | 1.37775 | 41 ft | 21 kts | 59° |
| 2026-05-05 09:47 | 38.87737 | 1.37953 | 39 ft | 24 kts | 63° |
| 2026-05-05 09:47 | 38.87822 | 1.38154 | 33 ft | 26 kts | 62° |
| 2026-05-05 09:47 | 38.87902 | 1.38349 | 32 ft | 25 kts | 62° |
| 2026-05-05 09:47 | 38.87984 | 1.38546 | 31 ft | 25 kts | 62° |
| 2026-05-05 09:48 | 38.87952 | 1.38670 | 30 ft | 17 kts | 150° |
| 2026-05-05 09:48 | 38.87905 | 1.38702 | 29 ft | 0 kts | 153° |
| 2026-05-05 09:48 | 38.87900 | 1.38706 | 28 ft | 3 kts | 153° |
| 2026-05-05 09:48 | 38.87861 | 1.38692 | 28 ft | 10 kts | 226° |
| 2026-05-05 09:49 | 38.87730 | 1.38392 | 29 ft | 73 kts | 241° |
| 2026-05-05 09:49 | 38.87393 | 1.37576 | 31 ft | 131 kts | 242° |
| 2026-05-05 09:49 | 38.86925 | 1.36439 | 402 ft | 144 kts | 240° |
| 2026-05-05 09:49 | 38.86451 | 1.35285 | 1019 ft | 150 kts | 242° |
| 2026-05-05 09:50 | 38.85971 | 1.34049 | 1538 ft | 162 kts | 245° |
| 2026-05-05 09:50 | 38.85490 | 1.32676 | 2003 ft | 176 kts | 247° |
| 2026-05-05 09:50 | 38.85012 | 1.31148 | 2439 ft | 192 kts | 250° |
| 2026-05-05 09:50 | 38.84537 | 1.29445 | 2893 ft | 214 kts | 252° |
| 2026-05-05 09:51 | 38.84069 | 1.27562 | 3428 ft | 234 kts | 253° |
| 2026-05-05 09:51 | 38.83722 | 1.25472 | 4220 ft | 241 kts | 271° |
| 2026-05-05 09:51 | 38.84168 | 1.23475 | 5464 ft | 230 kts | 301° |
| 2026-05-05 09:51 | 38.85287 | 1.22005 | 6434 ft | 237 kts | 321° |
| 2026-05-05 09:52 | 38.86731 | 1.20807 | 6954 ft | 256 kts | 327° |
| 2026-05-05 09:52 | 38.88279 | 1.19631 | 7792 ft | 258 kts | 326° |
| 2026-05-05 09:52 | 38.89807 | 1.18402 | 8711 ft | 260 kts | 324° |
| 2026-05-05 09:52 | 38.91294 | 1.17120 | 9595 ft | 262 kts | 322° |
| 2026-05-05 09:53 | 38.92963 | 1.16118 | 10410 ft | 272 kts | 346° |
| 2026-05-05 09:53 | 38.94883 | 1.16160 | 11142 ft | 284 kts | 8° |
| 2026-05-05 09:53 | 38.96869 | 1.16771 | 11550 ft | 306 kts | 12° |
| 2026-05-05 09:53 | 38.99009 | 1.17526 | 11804 ft | 330 kts | 12° |
| 2026-05-05 09:54 | 39.01305 | 1.18342 | 12041 ft | 353 kts | 12° |
| 2026-05-05 09:54 | 39.03728 | 1.19181 | 12516 ft | 366 kts | 12° |
| 2026-05-05 09:54 | 39.06210 | 1.20024 | 13238 ft | 371 kts | 11° |
| 2026-05-05 09:54 | 39.08702 | 1.20858 | 13941 ft | 376 kts | 11° |
| 2026-05-05 09:55 | 39.11257 | 1.21707 | 14584 ft | 381 kts | 11° |
| 2026-05-05 09:55 | 39.13844 | 1.22562 | 15239 ft | 386 kts | 10° |
| 2026-05-05 09:55 | 39.16465 | 1.23430 | 15891 ft | 391 kts | 10° |
| 2026-05-05 09:55 | 39.19116 | 1.24307 | 16507 ft | 396 kts | 10° |
| 2026-05-05 09:56 | 39.21805 | 1.25198 | 17151 ft | 400 kts | 9° |
| 2026-05-05 09:56 | 39.24525 | 1.26100 | 17758 ft | 406 kts | 9° |
| 2026-05-05 09:56 | 39.27280 | 1.27015 | 18357 ft | 410 kts | 9° |
| 2026-05-05 09:56 | 39.30058 | 1.27939 | 18896 ft | 415 kts | 9° |
| 2026-05-05 09:57 | 39.32839 | 1.28865 | 19459 ft | 418 kts | 9° |
| 2026-05-05 09:57 | 39.35684 | 1.29812 | 20012 ft | 422 kts | 9° |
| 2026-05-05 09:57 | 39.38552 | 1.30768 | 20569 ft | 426 kts | 9° |
| 2026-05-05 09:57 | 39.41406 | 1.31719 | 21105 ft | 430 kts | 9° |
| 2026-05-05 09:58 | 39.44325 | 1.32694 | 21649 ft | 434 kts | 9° |
| 2026-05-05 09:58 | 39.47276 | 1.33680 | 22186 ft | 438 kts | 9° |
| 2026-05-05 09:58 | 39.50250 | 1.34675 | 22726 ft | 442 kts | 9° |
| 2026-05-05 09:58 | 39.53218 | 1.35668 | 23240 ft | 446 kts | 9° |
| 2026-05-05 09:59 | 39.56249 | 1.36684 | 23720 ft | 450 kts | 8° |
| 2026-05-05 09:59 | 39.59309 | 1.37449 | 24156 ft | 446 kts | 0° |
| 2026-05-05 09:59 | 39.62398 | 1.37663 | 24591 ft | 442 kts | 352° |
| 2026-05-05 09:59 | 39.65423 | 1.37375 | 25024 ft | 439 kts | 346° |
| 2026-05-05 10:00 | 39.68497 | 1.36954 | 25454 ft | 443 kts | 346° |
| 2026-05-05 10:00 | 39.71545 | 1.36551 | 25871 ft | 446 kts | 346° |
| 2026-05-05 10:00 | 39.74650 | 1.36144 | 26284 ft | 449 kts | 346° |
| 2026-05-05 10:00 | 39.77782 | 1.35732 | 26686 ft | 452 kts | 346° |
| 2026-05-05 10:01 | 39.80893 | 1.35320 | 27066 ft | 455 kts | 346° |
| 2026-05-05 10:01 | 39.84057 | 1.34900 | 27450 ft | 458 kts | 346° |
| 2026-05-05 10:01 | 39.87246 | 1.34475 | 27813 ft | 461 kts | 345° |
| 2026-05-05 10:01 | 39.90452 | 1.34047 | 28167 ft | 464 kts | 345° |
| 2026-05-05 10:02 | 39.93682 | 1.33616 | 28513 ft | 467 kts | 345° |
| 2026-05-05 10:02 | 39.96921 | 1.33183 | 28859 ft | 470 kts | 345° |
| 2026-05-05 10:02 | 40.00151 | 1.32752 | 29205 ft | 472 kts | 345° |
| 2026-05-05 10:02 | 40.03434 | 1.32313 | 29542 ft | 475 kts | 345° |
| 2026-05-05 10:03 | 40.06725 | 1.31872 | 29860 ft | 477 kts | 345° |
| 2026-05-05 10:03 | 40.10051 | 1.31426 | 30165 ft | 479 kts | 345° |
| 2026-05-05 10:03 | 40.13383 | 1.30979 | 30463 ft | 481 kts | 345° |
| 2026-05-05 10:03 | 40.16720 | 1.30531 | 30768 ft | 483 kts | 345° |
| 2026-05-05 10:04 | 40.20091 | 1.30078 | 31088 ft | 484 kts | 345° |
| 2026-05-05 10:04 | 40.23391 | 1.29635 | 31459 ft | 484 kts | 345° |
| 2026-05-05 10:04 | 40.26759 | 1.29184 | 31857 ft | 483 kts | 345° |
| 2026-05-05 10:04 | 40.30111 | 1.28733 | 32255 ft | 482 kts | 345° |
| 2026-05-05 10:05 | 40.33405 | 1.28289 | 32634 ft | 481 kts | 344° |
| 2026-05-05 10:05 | 40.36673 | 1.27859 | 33848 ft | 452 kts | 344° |
| 2026-05-05 10:05 | 40.39733 | 1.27470 | 34948 ft | 434 kts | 343° |
| 2026-05-05 10:05 | 40.42743 | 1.27059 | 35143 ft | 437 kts | 343° |
| 2026-05-05 10:06 | 40.45819 | 1.26613 | 34797 ft | 453 kts | 343° |
| 2026-05-05 10:06 | 40.48983 | 1.26154 | 34447 ft | 470 kts | 344° |
| 2026-05-05 10:06 | 40.52273 | 1.25694 | 34102 ft | 477 kts | 344° |
| 2026-05-05 10:06 | 40.55596 | 1.25249 | 33711 ft | 477 kts | 344° |
| 2026-05-05 10:07 | 40.58888 | 1.24812 | 33321 ft | 475 kts | 344° |
| 2026-05-05 10:07 | 40.62141 | 1.24375 | 32969 ft | 474 kts | 344° |
| 2026-05-05 10:07 | 40.68705 | 1.23478 | 32962 ft | 478 kts | 345° |
| 2026-05-05 10:08 | 40.75389 | 1.22564 | 32961 ft | 478 kts | 345° |
| 2026-05-05 10:08 | 40.81973 | 1.21661 | 32962 ft | 478 kts | 345° |
| 2026-05-05 10:09 | 40.88559 | 1.20755 | 32955 ft | 478 kts | 345° |
| 2026-05-05 10:09 | 40.95217 | 1.19839 | 32948 ft | 478 kts | 345° |
| 2026-05-05 10:10 | 41.01815 | 1.18929 | 32941 ft | 478 kts | 345° |
| 2026-05-05 10:10 | 41.08435 | 1.18015 | 32937 ft | 479 kts | 345° |
| 2026-05-05 10:11 | 41.15053 | 1.17099 | 32941 ft | 479 kts | 345° |
| 2026-05-05 10:11 | 41.21710 | 1.16359 | 32941 ft | 482 kts | 347° |
| 2026-05-05 10:12 | 41.27301 | 1.15811 | 32940 ft | 482 kts | 347° |
| 2026-05-05 10:12 | 41.33992 | 1.15122 | 32926 ft | 481 kts | 347° |
| 2026-05-05 10:13 | 41.40638 | 1.14422 | 32944 ft | 484 kts | 347° |
| 2026-05-05 10:13 | 41.47389 | 1.13712 | 32957 ft | 484 kts | 347° |
| 2026-05-05 10:14 | 41.54092 | 1.13008 | 32954 ft | 485 kts | 347° |
| 2026-05-05 10:14 | 41.60805 | 1.12299 | 32950 ft | 485 kts | 346° |
| 2026-05-05 10:15 | 41.64095 | 1.11580 | 32958 ft | 471 kts | 335° |
| 2026-05-05 10:15 | 41.67117 | 1.10042 | 32959 ft | 456 kts | 322° |
| 2026-05-05 10:15 | 41.69705 | 1.07807 | 32965 ft | 439 kts | 310° |
| 2026-05-05 10:15 | 41.71850 | 1.04978 | 32968 ft | 425 kts | 300° |
| 2026-05-05 10:16 | 41.73510 | 1.01754 | 32972 ft | 413 kts | 290° |
| 2026-05-05 10:16 | 41.74801 | 0.98371 | 32974 ft | 411 kts | 288° |
| 2026-05-05 10:16 | 41.77398 | 0.91587 | 32957 ft | 409 kts | 288° |
| 2026-05-05 10:17 | 41.79998 | 0.84815 | 32961 ft | 409 kts | 288° |
| 2026-05-05 10:17 | 41.82602 | 0.78011 | 32963 ft | 409 kts | 288° |
| 2026-05-05 10:18 | 41.85184 | 0.71240 | 32957 ft | 410 kts | 288° |
| 2026-05-05 10:18 | 41.87783 | 0.64409 | 32965 ft | 409 kts | 288° |
| 2026-05-05 10:19 | 41.90359 | 0.57623 | 32963 ft | 409 kts | 288° |
| 2026-05-05 10:19 | 41.92931 | 0.50830 | 32956 ft | 409 kts | 288° |
| 2026-05-05 10:20 | 41.95515 | 0.43989 | 32953 ft | 409 kts | 288° |
| 2026-05-05 10:20 | 41.98086 | 0.37166 | 32954 ft | 409 kts | 288° |
| 2026-05-05 10:21 | 42.00642 | 0.30369 | 32952 ft | 409 kts | 288° |
| 2026-05-05 10:21 | 42.03214 | 0.23516 | 32948 ft | 410 kts | 288° |
| 2026-05-05 10:22 | 42.05768 | 0.16694 | 32948 ft | 410 kts | 288° |
| 2026-05-05 10:22 | 42.08334 | 0.09823 | 32951 ft | 410 kts | 288° |
| 2026-05-05 10:23 | 42.10881 | 0.02982 | 32962 ft | 411 kts | 288° |
| 2026-05-05 10:23 | 42.13447 | -0.03925 | 32966 ft | 411 kts | 289° |
| 2026-05-05 10:24 | 42.16013 | -0.10851 | 32973 ft | 413 kts | 289° |
| 2026-05-05 10:24 | 42.18569 | -0.17763 | 32982 ft | 414 kts | 289° |
| 2026-05-05 10:25 | 42.21140 | -0.24733 | 32986 ft | 415 kts | 289° |
| 2026-05-05 10:25 | 42.23701 | -0.31690 | 32985 ft | 415 kts | 289° |
| 2026-05-05 10:26 | 42.26272 | -0.38699 | 32980 ft | 416 kts | 289° |
| 2026-05-05 10:26 | 42.28848 | -0.45737 | 32984 ft | 418 kts | 289° |
| 2026-05-05 10:27 | 42.31410 | -0.52752 | 32973 ft | 417 kts | 289° |
| 2026-05-05 10:27 | 42.33975 | -0.59797 | 32975 ft | 420 kts | 289° |
| 2026-05-05 10:28 | 42.36557 | -0.66899 | 32984 ft | 420 kts | 289° |
| 2026-05-05 10:28 | 42.39134 | -0.74012 | 32977 ft | 421 kts | 290° |
| 2026-05-05 10:29 | 42.41705 | -0.81123 | 32976 ft | 421 kts | 290° |
| 2026-05-05 10:29 | 42.44272 | -0.88236 | 32978 ft | 422 kts | 290° |
| 2026-05-05 10:30 | 42.46852 | -0.95411 | 32983 ft | 423 kts | 290° |
| 2026-05-05 10:30 | 42.49414 | -1.02554 | 32986 ft | 424 kts | 290° |
| 2026-05-05 10:31 | 42.51992 | -1.09762 | 32997 ft | 426 kts | 290° |
| 2026-05-05 10:31 | 42.54588 | -1.17030 | 33003 ft | 428 kts | 290° |
| 2026-05-05 10:32 | 42.57183 | -1.24314 | 33007 ft | 429 kts | 290° |
| 2026-05-05 10:32 | 42.59779 | -1.31619 | 33014 ft | 429 kts | 290° |
| 2026-05-05 10:33 | 42.62355 | -1.38889 | 33009 ft | 430 kts | 290° |
| 2026-05-05 10:33 | 42.64949 | -1.46221 | 33000 ft | 428 kts | 290° |
| 2026-05-05 10:34 | 42.67528 | -1.53531 | 33007 ft | 429 kts | 291° |
| 2026-05-05 10:34 | 42.70073 | -1.60774 | 32995 ft | 430 kts | 291° |
| 2026-05-05 10:35 | 42.72659 | -1.68152 | 32992 ft | 430 kts | 291° |
| 2026-05-05 10:35 | 42.75709 | -1.75150 | 32996 ft | 436 kts | 298° |
| 2026-05-05 10:36 | 42.79037 | -1.82209 | 33012 ft | 437 kts | 298° |
| 2026-05-05 10:36 | 42.82298 | -1.89170 | 32997 ft | 436 kts | 298° |
| 2026-05-05 10:37 | 42.85566 | -1.96153 | 33003 ft | 437 kts | 298° |
| 2026-05-05 10:37 | 42.88813 | -2.03098 | 33006 ft | 437 kts | 298° |
| 2026-05-05 10:38 | 42.92078 | -2.10095 | 33011 ft | 437 kts | 298° |
| 2026-05-05 10:38 | 42.95337 | -2.17096 | 33019 ft | 438 kts | 298° |
| 2026-05-05 10:39 | 42.98601 | -2.24127 | 33002 ft | 437 kts | 298° |
| 2026-05-05 10:39 | 43.01873 | -2.31103 | 32998 ft | 436 kts | 298° |
| 2026-05-05 10:40 | 43.05139 | -2.38053 | 33003 ft | 437 kts | 298° |
| 2026-05-05 10:40 | 43.08412 | -2.45044 | 33003 ft | 437 kts | 298° |
| 2026-05-05 10:41 | 43.10612 | -2.49755 | 33009 ft | 437 kts | 298° |
| 2026-05-05 10:41 | 43.12783 | -2.54414 | 33011 ft | 438 kts | 298° |
| 2026-05-05 10:42 | 43.17697 | -2.64984 | 33013 ft | 438 kts | 298° |
| 2026-05-05 10:43 | 43.20975 | -2.72057 | 33013 ft | 439 kts | 298° |
| 2026-05-05 10:43 | 43.24228 | -2.79091 | 33014 ft | 439 kts | 298° |
| 2026-05-05 10:44 | 43.27488 | -2.86159 | 33013 ft | 440 kts | 298° |
| 2026-05-05 10:44 | 43.30210 | -2.93647 | 33018 ft | 436 kts | 287° |
| 2026-05-05 10:45 | 43.31773 | -3.01598 | 33018 ft | 433 kts | 279° |
| 2026-05-05 10:45 | 43.32997 | -3.09742 | 33021 ft | 434 kts | 279° |
| 2026-05-05 10:46 | 43.34218 | -3.17843 | 33024 ft | 434 kts | 279° |
| 2026-05-05 10:46 | 43.35433 | -3.25996 | 33021 ft | 435 kts | 279° |
| 2026-05-05 10:47 | 43.36638 | -3.34125 | 33020 ft | 435 kts | 279° |
| 2026-05-05 10:47 | 43.37865 | -3.42256 | 33015 ft | 435 kts | 279° |
| 2026-05-05 10:48 | 43.39090 | -3.50392 | 33028 ft | 436 kts | 279° |
| 2026-05-05 10:48 | 43.40312 | -3.58570 | 33026 ft | 436 kts | 279° |
| 2026-05-05 10:49 | 43.41525 | -3.66747 | 32678 ft | 435 kts | 280° |
| 2026-05-05 10:49 | 43.42122 | -3.70785 | 32072 ft | 437 kts | 280° |
| 2026-05-05 10:49 | 43.42731 | -3.74917 | 31200 ft | 441 kts | 280° |
| 2026-05-05 10:49 | 43.43332 | -3.79010 | 30671 ft | 436 kts | 280° |
| 2026-05-05 10:50 | 43.43933 | -3.83102 | 30056 ft | 433 kts | 280° |
| 2026-05-05 10:50 | 43.44520 | -3.87111 | 29466 ft | 427 kts | 281° |
| 2026-05-05 10:50 | 43.45024 | -3.91110 | 28904 ft | 420 kts | 276° |
| 2026-05-05 10:50 | 43.45280 | -3.95114 | 28356 ft | 414 kts | 274° |
| 2026-05-05 10:51 | 43.45521 | -3.99061 | 27803 ft | 409 kts | 275° |
| 2026-05-05 10:51 | 43.45762 | -4.02899 | 27270 ft | 404 kts | 275° |
| 2026-05-05 10:51 | 43.46000 | -4.06707 | 26738 ft | 399 kts | 275° |
| 2026-05-05 10:51 | 43.46237 | -4.10514 | 26203 ft | 394 kts | 275° |
| 2026-05-05 10:52 | 43.46465 | -4.14221 | 25680 ft | 390 kts | 275° |
| 2026-05-05 10:52 | 43.46691 | -4.17936 | 25163 ft | 386 kts | 275° |
| 2026-05-05 10:52 | 43.46914 | -4.21615 | 24639 ft | 383 kts | 276° |
| 2026-05-05 10:52 | 43.47131 | -4.25218 | 24133 ft | 379 kts | 276° |
| 2026-05-05 10:53 | 43.47347 | -4.28829 | 23621 ft | 377 kts | 276° |
| 2026-05-05 10:53 | 43.47561 | -4.32407 | 23066 ft | 373 kts | 276° |
| 2026-05-05 10:53 | 43.47764 | -4.35946 | 22564 ft | 368 kts | 275° |
| 2026-05-05 10:53 | 43.47935 | -4.39447 | 22063 ft | 364 kts | 275° |
| 2026-05-05 10:54 | 43.48092 | -4.42856 | 21576 ft | 360 kts | 275° |
| 2026-05-05 10:54 | 43.48250 | -4.46304 | 21085 ft | 356 kts | 275° |
| 2026-05-05 10:54 | 43.48410 | -4.49714 | 20588 ft | 353 kts | 275° |
| 2026-05-05 10:54 | 43.48575 | -4.53060 | 20102 ft | 350 kts | 275° |
| 2026-05-05 10:55 | 43.48757 | -4.56384 | 19622 ft | 356 kts | 275° |
| 2026-05-05 10:55 | 43.48953 | -4.59862 | 19112 ft | 365 kts | 275° |
| 2026-05-05 10:55 | 43.49144 | -4.63328 | 18606 ft | 368 kts | 275° |
| 2026-05-05 10:55 | 43.49337 | -4.66878 | 18052 ft | 366 kts | 275° |
| 2026-05-05 10:56 | 43.49522 | -4.70305 | 17541 ft | 361 kts | 275° |
| 2026-05-05 10:56 | 43.49704 | -4.73737 | 17031 ft | 356 kts | 275° |
| 2026-05-05 10:56 | 43.49883 | -4.77132 | 16529 ft | 352 kts | 275° |
| 2026-05-05 10:56 | 43.50059 | -4.80479 | 16032 ft | 348 kts | 275° |
| 2026-05-05 10:57 | 43.50232 | -4.83789 | 15539 ft | 344 kts | 275° |
| 2026-05-05 10:57 | 43.50402 | -4.87069 | 15053 ft | 341 kts | 275° |
| 2026-05-05 10:57 | 43.50515 | -4.89229 | 14735 ft | 339 kts | 275° |
| 2026-05-05 10:57 | 43.50756 | -4.93489 | 14100 ft | 335 kts | 275° |
| 2026-05-05 10:58 | 43.50879 | -4.95612 | 13784 ft | 334 kts | 275° |
| 2026-05-05 10:58 | 43.51062 | -4.98803 | 13280 ft | 330 kts | 275° |
| 2026-05-05 10:58 | 43.51296 | -5.02954 | 12661 ft | 325 kts | 275° |
| 2026-05-05 10:58 | 43.51468 | -5.06023 | 12202 ft | 321 kts | 275° |
| 2026-05-05 10:59 | 43.51582 | -5.08087 | 11897 ft | 318 kts | 275° |
| 2026-05-05 10:59 | 43.51750 | -5.11116 | 11441 ft | 315 kts | 275° |
| 2026-05-05 10:59 | 43.51914 | -5.14114 | 10992 ft | 312 kts | 275° |
| 2026-05-05 10:59 | 43.52074 | -5.17044 | 10554 ft | 309 kts | 275° |
| 2026-05-05 11:00 | 43.52233 | -5.19960 | 10312 ft | 299 kts | 275° |
| 2026-05-05 11:00 | 43.52383 | -5.22755 | 10186 ft | 286 kts | 275° |
| 2026-05-05 11:00 | 43.52527 | -5.25440 | 9981 ft | 277 kts | 275° |
| 2026-05-05 11:00 | 43.52666 | -5.28039 | 9808 ft | 267 kts | 275° |
| 2026-05-05 11:01 | 43.52795 | -5.30569 | 9469 ft | 263 kts | 273° |
| 2026-05-05 11:01 | 43.52709 | -5.33072 | 9121 ft | 261 kts | 263° |
| 2026-05-05 11:01 | 43.52340 | -5.35519 | 8764 ft | 258 kts | 259° |
| 2026-05-05 11:01 | 43.51939 | -5.37951 | 8249 ft | 263 kts | 259° |
| 2026-05-05 11:02 | 43.51550 | -5.40366 | 7895 ft | 260 kts | 259° |
| 2026-05-05 11:02 | 43.51162 | -5.42788 | 7549 ft | 257 kts | 259° |
| 2026-05-05 11:02 | 43.50776 | -5.45182 | 7195 ft | 255 kts | 259° |
| 2026-05-05 11:02 | 43.50392 | -5.47565 | 6845 ft | 254 kts | 259° |
| 2026-05-05 11:03 | 43.50008 | -5.49953 | 6446 ft | 254 kts | 259° |
| 2026-05-05 11:03 | 43.49625 | -5.52323 | 6081 ft | 252 kts | 259° |
| 2026-05-05 11:03 | 43.49245 | -5.54666 | 5743 ft | 250 kts | 258° |
| 2026-05-05 11:03 | 43.48868 | -5.56987 | 5415 ft | 246 kts | 259° |
| 2026-05-05 11:04 | 43.48494 | -5.59286 | 5203 ft | 237 kts | 258° |
| 2026-05-05 11:04 | 43.48187 | -5.61147 | 6362 ft | 200 kts | 259° |
| 2026-05-05 11:04 | 43.47849 | -5.63238 | 5601 ft | 234 kts | 259° |
| 2026-05-05 11:04 | 43.47623 | -5.65504 | 4946 ft | 246 kts | 269° |
| 2026-05-05 11:05 | 43.47797 | -5.67790 | 4851 ft | 234 kts | 285° |
| 2026-05-05 11:05 | 43.48323 | -5.69823 | 4847 ft | 218 kts | 289° |
| 2026-05-05 11:05 | 43.48819 | -5.71757 | 4732 ft | 210 kts | 289° |
| 2026-05-05 11:05 | 43.49323 | -5.73590 | 4572 ft | 200 kts | 290° |
| 2026-05-05 11:06 | 43.49802 | -5.75347 | 4453 ft | 192 kts | 288° |
| 2026-05-05 11:06 | 43.50215 | -5.77059 | 4347 ft | 185 kts | 285° |
| 2026-05-05 11:06 | 43.50556 | -5.78765 | 4173 ft | 185 kts | 283° |
| 2026-05-05 11:06 | 43.50839 | -5.80394 | 4060 ft | 170 kts | 283° |
| 2026-05-05 11:07 | 43.51142 | -5.81954 | 3826 ft | 168 kts | 286° |
| 2026-05-05 11:07 | 43.51532 | -5.83439 | 3506 ft | 162 kts | 290° |
| 2026-05-05 11:07 | 43.51984 | -5.84837 | 3194 ft | 156 kts | 293° |
| 2026-05-05 11:07 | 43.52389 | -5.86175 | 2963 ft | 147 kts | 289° |
| 2026-05-05 11:08 | 43.52694 | -5.87464 | 2716 ft | 138 kts | 285° |
| 2026-05-05 11:08 | 43.52945 | -5.88676 | 2478 ft | 128 kts | 286° |
| 2026-05-05 11:08 | 43.53177 | -5.89826 | 2218 ft | 120 kts | 285° |
| 2026-05-05 11:08 | 43.53412 | -5.90929 | 2056 ft | 122 kts | 287° |
| 2026-05-05 11:09 | 43.53669 | -5.92058 | 1935 ft | 124 kts | 287° |
| 2026-05-05 11:09 | 43.53935 | -5.93155 | 1738 ft | 119 kts | 289° |
| 2026-05-05 11:09 | 43.54217 | -5.94225 | 1630 ft | 118 kts | 289° |
| 2026-05-05 11:09 | 43.54469 | -5.95319 | 1497 ft | 122 kts | 287° |
| 2026-05-05 11:10 | 43.54718 | -5.96450 | 1367 ft | 121 kts | 287° |
| 2026-05-05 11:10 | 43.54970 | -5.97557 | 1162 ft | 122 kts | 288° |
| 2026-05-05 11:10 | 43.55229 | -5.98686 | 920 ft | 125 kts | 288° |
| 2026-05-05 11:10 | 43.55499 | -5.99806 | 819 ft | 119 kts | 289° |
| 2026-05-05 11:11 | 43.55749 | -6.00897 | 668 ft | 121 kts | 288° |
| 2026-05-05 11:11 | 43.56014 | -6.02009 | 470 ft | 116 kts | 288° |
| 2026-05-05 11:11 | 43.56247 | -6.02978 | 425 ft | 84 kts | 288° |
| 2026-05-05 11:11 | 43.56380 | -6.03536 | 424 ft | 43 kts | 287° |
| 2026-05-05 11:12 | 43.56436 | -6.03787 | 415 ft | 26 kts | 288° |
| 2026-05-05 11:12 | 43.56484 | -6.04021 | 412 ft | 24 kts | 279° |
| 2026-05-05 11:12 | 43.56488 | -6.04248 | 419 ft | 23 kts | 263° |
| 2026-05-05 11:12 | 43.56402 | -6.04326 | 412 ft | 20 kts | 130° |
| 2026-05-05 11:13 | 43.56351 | -6.04134 | 411 ft | 23 kts | 107° |
| 2026-05-05 11:13 | 43.56298 | -6.03908 | 417 ft | 26 kts | 108° |
| 2026-05-05 11:13 | 43.56237 | -6.03668 | 413 ft | 27 kts | 108° |
| 2026-05-05 11:13 | 43.56178 | -6.03412 | 418 ft | 28 kts | 107° |
| 2026-05-05 11:14 | 43.56113 | -6.03231 | 423 ft | 14 kts | 176° |
| 2026-05-05 11:14 | 43.56036 | -6.03278 | 417 ft | 8 kts | 203° |
| 2026-05-05 11:14 | 43.56022 | -6.03286 | 421 ft | 0 kts | 201° |